sensor_id;sensor_type;location;lat;lon;timestamp;temperature;humidity
47813;DHT22;34221;45.296;9.516;2023-08-06T00:00:03;21.20;67.60
47813;DHT22;34221;45.296;9.516;2023-08-06T00:00:23;21.20;67.20
47813;DHT22;34221;45.296;9.516;2023-08-06T00:00:38;21.20;67.20
47813;DHT22;34221;45.296;9.516;2023-08-06T00:00:53;21.20;66.70
47813;DHT22;34221;45.296;9.516;2023-08-06T00:01:08;21.20;66.90
47813;DHT22;34221;45.296;9.516;2023-08-06T00:01:23;21.20;66.90
47813;DHT22;34221;45.296;9.516;2023-08-06T00:01:40;21.20;66.50
47813;DHT22;34221;45.296;9.516;2023-08-06T00:01:54;21.20;68.00
47813;DHT22;34221;45.296;9.516;2023-08-06T00:02:09;21.20;66.90
47813;DHT22;34221;45.296;9.516;2023-08-06T00:02:24;21.20;66.90
47813;DHT22;34221;45.296;9.516;2023-08-06T00:02:39;21.20;67.30
47813;DHT22;34221;45.296;9.516;2023-08-06T00:02:54;21.20;67.20
47813;DHT22;34221;45.296;9.516;2023-08-06T00:03:09;21.20;67.00
47813;DHT22;34221;45.296;9.516;2023-08-06T00:03:24;21.20;66.80
47813;DHT22;34221;45.296;9.516;2023-08-06T00:03:39;21.20;68.30
47813;DHT22;34221;45.296;9.516;2023-08-06T00:03:54;21.20;67.40
47813;DHT22;34221;45.296;9.516;2023-08-06T00:04:09;21.20;66.80
47813;DHT22;34221;45.296;9.516;2023-08-06T00:04:24;21.20;66.90
47813;DHT22;34221;45.296;9.516;2023-08-06T00:04:39;21.20;66.60
47813;DHT22;34221;45.296;9.516;2023-08-06T00:04:53;21.10;66.70
47813;DHT22;34221;45.296;9.516;2023-08-06T00:05:08;21.10;67.00
47813;DHT22;34221;45.296;9.516;2023-08-06T00:05:23;21.20;66.90
47813;DHT22;34221;45.296;9.516;2023-08-06T00:05:42;21.20;67.00
47813;DHT22;34221;45.296;9.516;2023-08-06T00:05:57;21.20;66.60
47813;DHT22;34221;45.296;9.516;2023-08-06T00:06:12;21.10;66.70
47813;DHT22;34221;45.296;9.516;2023-08-06T00:06:27;21.10;66.80
47813;DHT22;34221;45.296;9.516;2023-08-06T00:06:42;21.10;66.70
47813;DHT22;34221;45.296;9.516;2023-08-06T00:06:57;21.10;66.70
47813;DHT22;34221;45.296;9.516;2023-08-06T00:07:12;21.10;66.80
47813;DHT22;34221;45.296;9.516;2023-08-06T00:07:27;21.10;67.00
47813;DHT22;34221;45.296;9.516;2023-08-06T00:07:42;21.10;68.60
47813;DHT22;34221;45.296;9.516;2023-08-06T00:07:57;21.10;67.40
47813;DHT22;34221;45.296;9.516;2023-08-06T00:08:12;21.10;67.40
47813;DHT22;34221;45.296;9.516;2023-08-06T00:08:27;21.10;67.20
47813;DHT22;34221;45.296;9.516;2023-08-06T00:08:42;21.10;67.20
47813;DHT22;34221;45.296;9.516;2023-08-06T00:08:57;21.10;67.30
47813;DHT22;34221;45.296;9.516;2023-08-06T00:09:12;21.10;67.40
47813;DHT22;34221;45.296;9.516;2023-08-06T00:09:28;21.10;71.30
47813;DHT22;34221;45.296;9.516;2023-08-06T00:09:42;21.10;68.90
47813;DHT22;34221;45.296;9.516;2023-08-06T00:09:57;21.10;68.70
47813;DHT22;34221;45.296;9.516;2023-08-06T00:10:12;21.10;68.60
47813;DHT22;34221;45.296;9.516;2023-08-06T00:10:27;21.10;68.60
47813;DHT22;34221;45.296;9.516;2023-08-06T00:10:42;21.00;68.30
47813;DHT22;34221;45.296;9.516;2023-08-06T00:10:57;21.10;68.30
47813;DHT22;34221;45.296;9.516;2023-08-06T00:11:13;21.10;68.70
47813;DHT22;34221;45.296;9.516;2023-08-06T00:11:28;21.10;68.40
47813;DHT22;34221;45.296;9.516;2023-08-06T00:11:43;21.10;68.60
47813;DHT22;34221;45.296;9.516;2023-08-06T00:11:58;21.10;68.60
47813;DHT22;34221;45.296;9.516;2023-08-06T00:12:13;21.10;68.60
47813;DHT22;34221;45.296;9.516;2023-08-06T00:12:28;21.10;68.60
47813;DHT22;34221;45.296;9.516;2023-08-06T00:12:45;21.10;69.70
47813;DHT22;34221;45.296;9.516;2023-08-06T00:13:00;21.10;68.70
47813;DHT22;34221;45.296;9.516;2023-08-06T00:13:15;21.10;68.90
47813;DHT22;34221;45.296;9.516;2023-08-06T00:13:30;21.10;69.30
47813;DHT22;34221;45.296;9.516;2023-08-06T00:13:45;21.10;69.10
47813;DHT22;34221;45.296;9.516;2023-08-06T00:14:00;21.10;68.60
47813;DHT22;34221;45.296;9.516;2023-08-06T00:14:15;21.10;68.60
47813;DHT22;34221;45.296;9.516;2023-08-06T00:14:51;21.10;68.60
47813;DHT22;34221;45.296;9.516;2023-08-06T00:15:07;21.10;68.70
47813;DHT22;34221;45.296;9.516;2023-08-06T00:15:22;21.00;69.80
47813;DHT22;34221;45.296;9.516;2023-08-06T00:15:37;21.00;69.60
47813;DHT22;34221;45.296;9.516;2023-08-06T00:15:52;21.00;68.80
47813;DHT22;34221;45.296;9.516;2023-08-06T00:16:11;21.00;68.60
47813;DHT22;34221;45.296;9.516;2023-08-06T00:16:27;21.00;68.90
47813;DHT22;34221;45.296;9.516;2023-08-06T00:16:44;21.00;71.00
47813;DHT22;34221;45.296;9.516;2023-08-06T00:16:59;21.10;70.30
47813;DHT22;34221;45.296;9.516;2023-08-06T00:17:14;21.00;69.50
47813;DHT22;34221;45.296;9.516;2023-08-06T00:17:29;21.00;70.10
47813;DHT22;34221;45.296;9.516;2023-08-06T00:17:44;21.10;69.40
47813;DHT22;34221;45.296;9.516;2023-08-06T00:17:59;21.00;69.10
47813;DHT22;34221;45.296;9.516;2023-08-06T00:18:14;21.00;69.00
47813;DHT22;34221;45.296;9.516;2023-08-06T00:18:29;21.00;69.60
47813;DHT22;34221;45.296;9.516;2023-08-06T00:18:44;21.00;69.40
47813;DHT22;34221;45.296;9.516;2023-08-06T00:18:59;21.00;69.30
47813;DHT22;34221;45.296;9.516;2023-08-06T00:19:13;21.00;69.00
47813;DHT22;34221;45.296;9.516;2023-08-06T00:19:28;21.00;68.80
47813;DHT22;34221;45.296;9.516;2023-08-06T00:19:44;21.00;68.80
47813;DHT22;34221;45.296;9.516;2023-08-06T00:19:59;21.00;69.30
47813;DHT22;34221;45.296;9.516;2023-08-06T00:20:19;21.00;69.20
47813;DHT22;34221;45.296;9.516;2023-08-06T00:20:34;21.00;69.60
47813;DHT22;34221;45.296;9.516;2023-08-06T00:20:49;20.90;70.10
47813;DHT22;34221;45.296;9.516;2023-08-06T00:21:04;21.00;69.90
47813;DHT22;34221;45.296;9.516;2023-08-06T00:21:19;21.00;70.00
47813;DHT22;34221;45.296;9.516;2023-08-06T00:21:34;21.00;70.50
47813;DHT22;34221;45.296;9.516;2023-08-06T00:21:49;21.00;69.80
47813;DHT22;34221;45.296;9.516;2023-08-06T00:22:04;21.00;69.50
47813;DHT22;34221;45.296;9.516;2023-08-06T00:22:19;20.90;69.30
47813;DHT22;34221;45.296;9.516;2023-08-06T00:22:35;20.90;69.40
47813;DHT22;34221;45.296;9.516;2023-08-06T00:22:50;20.90;69.60
47813;DHT22;34221;45.296;9.516;2023-08-06T00:23:05;20.90;70.00
47813;DHT22;34221;45.296;9.516;2023-08-06T00:23:20;20.90;70.50
47813;DHT22;34221;45.296;9.516;2023-08-06T00:23:36;20.90;71.00
47813;DHT22;34221;45.296;9.516;2023-08-06T00:23:51;20.90;70.30
47813;DHT22;34221;45.296;9.516;2023-08-06T00:24:06;20.90;70.40
47813;DHT22;34221;45.296;9.516;2023-08-06T00:24:21;20.90;70.50
47813;DHT22;34221;45.296;9.516;2023-08-06T00:24:37;20.90;70.40
47813;DHT22;34221;45.296;9.516;2023-08-06T00:24:52;20.90;69.60
47813;DHT22;34221;45.296;9.516;2023-08-06T00:25:07;20.90;69.90
47813;DHT22;34221;45.296;9.516;2023-08-06T00:25:23;20.90;69.80
47813;DHT22;34221;45.296;9.516;2023-08-06T00:25:37;20.90;69.60
47813;DHT22;34221;45.296;9.516;2023-08-06T00:25:52;20.90;69.80
47813;DHT22;34221;45.296;9.516;2023-08-06T00:26:07;20.90;70.50
47813;DHT22;34221;45.296;9.516;2023-08-06T00:26:22;20.90;70.10
47813;DHT22;34221;45.296;9.516;2023-08-06T00:26:37;20.90;71.10
47813;DHT22;34221;45.296;9.516;2023-08-06T00:26:52;20.90;70.50
47813;DHT22;34221;45.296;9.516;2023-08-06T00:27:07;20.90;70.30
47813;DHT22;34221;45.296;9.516;2023-08-06T00:27:22;20.90;70.30
47813;DHT22;34221;45.296;9.516;2023-08-06T00:27:37;20.90;70.80
47813;DHT22;34221;45.296;9.516;2023-08-06T00:27:53;20.90;71.80
47813;DHT22;34221;45.296;9.516;2023-08-06T00:28:08;20.80;70.20
47813;DHT22;34221;45.296;9.516;2023-08-06T00:28:23;20.90;70.50
47813;DHT22;34221;45.296;9.516;2023-08-06T00:28:37;20.80;70.00
47813;DHT22;34221;45.296;9.516;2023-08-06T00:28:52;20.80;70.00
47813;DHT22;34221;45.296;9.516;2023-08-06T00:29:07;20.80;70.00
47813;DHT22;34221;45.296;9.516;2023-08-06T00:29:22;20.80;70.10
47813;DHT22;34221;45.296;9.516;2023-08-06T00:29:37;20.80;70.40
47813;DHT22;34221;45.296;9.516;2023-08-06T00:29:52;20.80;70.50
47813;DHT22;34221;45.296;9.516;2023-08-06T00:30:07;20.80;70.30
47813;DHT22;34221;45.296;9.516;2023-08-06T00:30:22;20.80;70.50
47813;DHT22;34221;45.296;9.516;2023-08-06T00:30:39;20.80;70.50
47813;DHT22;34221;45.296;9.516;2023-08-06T00:30:55;20.80;70.70
47813;DHT22;34221;45.296;9.516;2023-08-06T00:31:10;20.80;70.50
47813;DHT22;34221;45.296;9.516;2023-08-06T00:31:25;20.80;70.90
47813;DHT22;34221;45.296;9.516;2023-08-06T00:31:40;20.80;70.70
47813;DHT22;34221;45.296;9.516;2023-08-06T00:31:55;20.80;70.30
47813;DHT22;34221;45.296;9.516;2023-08-06T00:32:43;20.80;70.50
47813;DHT22;34221;45.296;9.516;2023-08-06T00:32:59;20.80;70.50
47813;DHT22;34221;45.296;9.516;2023-08-06T00:33:14;20.80;70.90
47813;DHT22;34221;45.296;9.516;2023-08-06T00:33:29;20.80;71.10
47813;DHT22;34221;45.296;9.516;2023-08-06T00:33:44;20.80;70.70
47813;DHT22;34221;45.296;9.516;2023-08-06T00:33:59;20.80;71.00
47813;DHT22;34221;45.296;9.516;2023-08-06T00:34:14;20.80;70.50
47813;DHT22;34221;45.296;9.516;2023-08-06T00:34:29;20.80;70.20
47813;DHT22;34221;45.296;9.516;2023-08-06T00:34:44;20.80;70.20
47813;DHT22;34221;45.296;9.516;2023-08-06T00:34:59;20.80;71.30
47813;DHT22;34221;45.296;9.516;2023-08-06T00:35:14;20.80;71.00
47813;DHT22;34221;45.296;9.516;2023-08-06T00:35:29;20.80;71.70
47813;DHT22;34221;45.296;9.516;2023-08-06T00:35:44;20.80;71.30
47813;DHT22;34221;45.296;9.516;2023-08-06T00:35:59;20.80;71.10
47813;DHT22;34221;45.296;9.516;2023-08-06T00:36:34;20.80;70.90
47813;DHT22;34221;45.296;9.516;2023-08-06T00:36:49;20.80;71.50
47813;DHT22;34221;45.296;9.516;2023-08-06T00:37:04;20.80;70.60
47813;DHT22;34221;45.296;9.516;2023-08-06T00:37:19;20.80;70.50
47813;DHT22;34221;45.296;9.516;2023-08-06T00:37:34;20.80;70.60
47813;DHT22;34221;45.296;9.516;2023-08-06T00:37:49;20.80;71.00
47813;DHT22;34221;45.296;9.516;2023-08-06T00:38:04;20.80;71.30
47813;DHT22;34221;45.296;9.516;2023-08-06T00:38:19;20.80;70.50
47813;DHT22;34221;45.296;9.516;2023-08-06T00:38:34;20.80;70.50
47813;DHT22;34221;45.296;9.516;2023-08-06T00:38:49;20.80;71.00
47813;DHT22;34221;45.296;9.516;2023-08-06T00:39:04;20.80;71.50
47813;DHT22;34221;45.296;9.516;2023-08-06T00:39:19;20.80;71.00
47813;DHT22;34221;45.296;9.516;2023-08-06T00:39:34;20.80;71.00
47813;DHT22;34221;45.296;9.516;2023-08-06T00:39:48;20.80;70.50
47813;DHT22;34221;45.296;9.516;2023-08-06T00:40:04;20.80;71.10
47813;DHT22;34221;45.296;9.516;2023-08-06T00:40:20;20.80;71.20
47813;DHT22;34221;45.296;9.516;2023-08-06T00:40:37;20.80;70.70
47813;DHT22;34221;45.296;9.516;2023-08-06T00:40:52;20.80;70.70
47813;DHT22;34221;45.296;9.516;2023-08-06T00:41:08;20.80;71.00
47813;DHT22;34221;45.296;9.516;2023-08-06T00:41:22;20.80;70.90
47813;DHT22;34221;45.296;9.516;2023-08-06T00:41:37;20.80;71.30
47813;DHT22;34221;45.296;9.516;2023-08-06T00:41:52;20.80;70.90
47813;DHT22;34221;45.296;9.516;2023-08-06T00:42:07;20.80;71.70
47813;DHT22;34221;45.296;9.516;2023-08-06T00:42:23;20.80;71.10
47813;DHT22;34221;45.296;9.516;2023-08-06T00:42:39;20.80;71.90
47813;DHT22;34221;45.296;9.516;2023-08-06T00:42:54;20.80;71.50
47813;DHT22;34221;45.296;9.516;2023-08-06T00:43:09;20.80;71.40
47813;DHT22;34221;45.296;9.516;2023-08-06T00:43:24;20.80;71.00
47813;DHT22;34221;45.296;9.516;2023-08-06T00:43:39;20.80;71.30
47813;DHT22;34221;45.296;9.516;2023-08-06T00:43:53;20.80;72.60
47813;DHT22;34221;45.296;9.516;2023-08-06T00:44:08;20.80;71.40
47813;DHT22;34221;45.296;9.516;2023-08-06T00:44:24;20.80;71.30
47813;DHT22;34221;45.296;9.516;2023-08-06T00:44:39;20.80;71.70
47813;DHT22;34221;45.296;9.516;2023-08-06T00:44:54;20.80;71.50
47813;DHT22;34221;45.296;9.516;2023-08-06T00:45:09;20.70;70.80
47813;DHT22;34221;45.296;9.516;2023-08-06T00:45:25;20.80;71.40
47813;DHT22;34221;45.296;9.516;2023-08-06T00:45:40;20.80;71.50
47813;DHT22;34221;45.296;9.516;2023-08-06T00:45:56;20.80;71.10
47813;DHT22;34221;45.296;9.516;2023-08-06T00:46:12;20.80;71.10
47813;DHT22;34221;45.296;9.516;2023-08-06T00:46:27;20.80;71.50
47813;DHT22;34221;45.296;9.516;2023-08-06T00:46:42;20.80;71.80
47813;DHT22;34221;45.296;9.516;2023-08-06T00:46:58;20.80;71.80
47813;DHT22;34221;45.296;9.516;2023-08-06T00:47:13;20.80;71.40
47813;DHT22;34221;45.296;9.516;2023-08-06T00:47:28;20.80;72.00
47813;DHT22;34221;45.296;9.516;2023-08-06T00:47:43;20.80;72.30
47813;DHT22;34221;45.296;9.516;2023-08-06T00:48:00;20.80;71.30
47813;DHT22;34221;45.296;9.516;2023-08-06T00:48:15;20.80;70.90
47813;DHT22;34221;45.296;9.516;2023-08-06T00:48:32;20.80;72.30
47813;DHT22;34221;45.296;9.516;2023-08-06T00:48:47;20.80;71.70
47813;DHT22;34221;45.296;9.516;2023-08-06T00:49:03;20.80;71.40
47813;DHT22;34221;45.296;9.516;2023-08-06T00:49:19;20.80;71.50
47813;DHT22;34221;45.296;9.516;2023-08-06T00:49:38;20.80;73.40
47813;DHT22;34221;45.296;9.516;2023-08-06T00:49:54;20.80;72.70
47813;DHT22;34221;45.296;9.516;2023-08-06T00:50:09;20.80;72.20
47813;DHT22;34221;45.296;9.516;2023-08-06T00:50:24;20.80;72.40
47813;DHT22;34221;45.296;9.516;2023-08-06T00:50:39;20.80;72.20
47813;DHT22;34221;45.296;9.516;2023-08-06T00:50:54;20.80;71.70
47813;DHT22;34221;45.296;9.516;2023-08-06T00:51:10;20.80;72.60
47813;DHT22;34221;45.296;9.516;2023-08-06T00:51:27;20.80;71.70
47813;DHT22;34221;45.296;9.516;2023-08-06T00:51:42;20.80;70.80
47813;DHT22;34221;45.296;9.516;2023-08-06T00:51:58;20.80;70.70
47813;DHT22;34221;45.296;9.516;2023-08-06T00:52:13;20.80;71.40
47813;DHT22;34221;45.296;9.516;2023-08-06T00:52:29;20.80;72.70
47813;DHT22;34221;45.296;9.516;2023-08-06T00:52:43;20.80;72.20
47813;DHT22;34221;45.296;9.516;2023-08-06T00:52:59;20.80;73.80
47813;DHT22;34221;45.296;9.516;2023-08-06T00:53:14;20.80;71.50
47813;DHT22;34221;45.296;9.516;2023-08-06T00:53:30;20.80;71.70
47813;DHT22;34221;45.296;9.516;2023-08-06T00:53:44;20.80;71.50
47813;DHT22;34221;45.296;9.516;2023-08-06T00:53:59;20.80;71.50
47813;DHT22;34221;45.296;9.516;2023-08-06T00:54:15;20.80;72.10
47813;DHT22;34221;45.296;9.516;2023-08-06T00:54:31;20.80;71.70
47813;DHT22;34221;45.296;9.516;2023-08-06T00:54:46;20.80;71.40
47813;DHT22;34221;45.296;9.516;2023-08-06T00:55:01;20.80;71.50
47813;DHT22;34221;45.296;9.516;2023-08-06T00:55:17;20.80;71.40
47813;DHT22;34221;45.296;9.516;2023-08-06T00:55:32;20.80;70.80
47813;DHT22;34221;45.296;9.516;2023-08-06T00:55:48;20.80;71.50
47813;DHT22;34221;45.296;9.516;2023-08-06T00:56:03;20.80;71.50
47813;DHT22;34221;45.296;9.516;2023-08-06T00:56:19;20.80;71.50
47813;DHT22;34221;45.296;9.516;2023-08-06T00:56:35;20.80;72.30
47813;DHT22;34221;45.296;9.516;2023-08-06T00:56:53;20.80;71.70
47813;DHT22;34221;45.296;9.516;2023-08-06T00:57:09;20.90;71.30
47813;DHT22;34221;45.296;9.516;2023-08-06T00:57:25;20.80;71.70
47813;DHT22;34221;45.296;9.516;2023-08-06T00:57:41;20.80;71.30
47813;DHT22;34221;45.296;9.516;2023-08-06T00:57:57;20.80;71.20
47813;DHT22;34221;45.296;9.516;2023-08-06T00:58:14;20.80;71.10
47813;DHT22;34221;45.296;9.516;2023-08-06T00:58:30;20.80;71.70
47813;DHT22;34221;45.296;9.516;2023-08-06T00:58:45;20.80;72.40
47813;DHT22;34221;45.296;9.516;2023-08-06T00:59:01;20.80;72.20
47813;DHT22;34221;45.296;9.516;2023-08-06T00:59:16;20.80;72.00
47813;DHT22;34221;45.296;9.516;2023-08-06T00:59:31;20.80;73.00
47813;DHT22;34221;45.296;9.516;2023-08-06T00:59:46;20.90;72.00
47813;DHT22;34221;45.296;9.516;2023-08-06T01:00:02;20.80;71.90
47813;DHT22;34221;45.296;9.516;2023-08-06T01:00:19;20.90;72.60
47813;DHT22;34221;45.296;9.516;2023-08-06T01:00:35;20.90;72.20
47813;DHT22;34221;45.296;9.516;2023-08-06T01:00:50;20.90;73.30
47813;DHT22;34221;45.296;9.516;2023-08-06T01:01:05;20.80;72.00
47813;DHT22;34221;45.296;9.516;2023-08-06T01:01:20;20.80;72.50
47813;DHT22;34221;45.296;9.516;2023-08-06T01:01:35;20.80;71.70
47813;DHT22;34221;45.296;9.516;2023-08-06T01:01:50;20.80;71.70
47813;DHT22;34221;45.296;9.516;2023-08-06T01:02:05;20.80;71.50
47813;DHT22;34221;45.296;9.516;2023-08-06T01:02:20;20.80;73.10
47813;DHT22;34221;45.296;9.516;2023-08-06T01:02:36;20.90;73.30
47813;DHT22;34221;45.296;9.516;2023-08-06T01:02:52;20.90;73.20
47813;DHT22;34221;45.296;9.516;2023-08-06T01:03:08;20.90;72.70
47813;DHT22;34221;45.296;9.516;2023-08-06T01:03:23;20.90;71.80
47813;DHT22;34221;45.296;9.516;2023-08-06T01:03:38;20.90;71.60
47813;DHT22;34221;45.296;9.516;2023-08-06T01:03:53;20.80;72.40
47813;DHT22;34221;45.296;9.516;2023-08-06T01:04:08;20.80;73.40
47813;DHT22;34221;45.296;9.516;2023-08-06T01:04:23;20.90;71.50
47813;DHT22;34221;45.296;9.516;2023-08-06T01:04:39;20.80;71.50
47813;DHT22;34221;45.296;9.516;2023-08-06T01:04:53;20.80;71.40
47813;DHT22;34221;45.296;9.516;2023-08-06T01:05:08;20.80;72.20
47813;DHT22;34221;45.296;9.516;2023-08-06T01:05:23;20.80;71.30
47813;DHT22;34221;45.296;9.516;2023-08-06T01:05:38;20.80;71.20
47813;DHT22;34221;45.296;9.516;2023-08-06T01:05:54;20.80;72.70
47813;DHT22;34221;45.296;9.516;2023-08-06T01:06:10;20.80;72.90
47813;DHT22;34221;45.296;9.516;2023-08-06T01:06:46;20.90;71.70
47813;DHT22;34221;45.296;9.516;2023-08-06T01:09:45;20.80;71.90
47813;DHT22;34221;45.296;9.516;2023-08-06T01:10:33;20.80;72.20
47813;DHT22;34221;45.296;9.516;2023-08-06T01:11:04;20.80;71.80
47813;DHT22;34221;45.296;9.516;2023-08-06T01:11:44;20.80;72.30
47813;DHT22;34221;45.296;9.516;2023-08-06T01:12:29;20.80;71.50
47813;DHT22;34221;45.296;9.516;2023-08-06T01:13:17;20.80;71.80
47813;DHT22;34221;45.296;9.516;2023-08-06T01:13:42;20.80;71.50
47813;DHT22;34221;45.296;9.516;2023-08-06T01:14:35;20.80;72.00
47813;DHT22;34221;45.296;9.516;2023-08-06T01:15:00;20.80;72.10
47813;DHT22;34221;45.296;9.516;2023-08-06T01:15:29;20.80;72.40
47813;DHT22;34221;45.296;9.516;2023-08-06T01:15:52;20.80;71.60
47813;DHT22;34221;45.296;9.516;2023-08-06T01:16:17;20.80;73.00
47813;DHT22;34221;45.296;9.516;2023-08-06T01:16:34;20.80;72.80
47813;DHT22;34221;45.296;9.516;2023-08-06T01:16:51;20.80;72.20
47813;DHT22;34221;45.296;9.516;2023-08-06T01:17:08;20.80;73.00
47813;DHT22;34221;45.296;9.516;2023-08-06T01:17:24;20.80;72.20
47813;DHT22;34221;45.296;9.516;2023-08-06T01:17:41;20.80;72.40
47813;DHT22;34221;45.296;9.516;2023-08-06T01:17:57;20.80;72.00
47813;DHT22;34221;45.296;9.516;2023-08-06T01:18:13;20.80;71.80
47813;DHT22;34221;45.296;9.516;2023-08-06T01:18:29;20.80;71.80
47813;DHT22;34221;45.296;9.516;2023-08-06T01:18:44;20.80;71.90
47813;DHT22;34221;45.296;9.516;2023-08-06T01:19:03;20.80;72.00
47813;DHT22;34221;45.296;9.516;2023-08-06T01:19:19;20.80;71.90
47813;DHT22;34221;45.296;9.516;2023-08-06T01:19:34;20.80;72.30
47813;DHT22;34221;45.296;9.516;2023-08-06T01:19:49;20.80;72.20
47813;DHT22;34221;45.296;9.516;2023-08-06T01:20:04;20.80;72.00
47813;DHT22;34221;45.296;9.516;2023-08-06T01:20:20;20.80;71.70
47813;DHT22;34221;45.296;9.516;2023-08-06T01:20:35;20.80;72.00
47813;DHT22;34221;45.296;9.516;2023-08-06T01:20:50;20.80;72.10
47813;DHT22;34221;45.296;9.516;2023-08-06T01:21:04;20.80;71.70
47813;DHT22;34221;45.296;9.516;2023-08-06T01:21:19;20.80;72.40
47813;DHT22;34221;45.296;9.516;2023-08-06T01:21:34;20.80;71.80
47813;DHT22;34221;45.296;9.516;2023-08-06T01:21:49;20.80;72.30
47813;DHT22;34221;45.296;9.516;2023-08-06T01:22:05;20.80;71.70
47813;DHT22;34221;45.296;9.516;2023-08-06T01:22:21;20.80;71.80
47813;DHT22;34221;45.296;9.516;2023-08-06T01:22:37;20.80;71.70
47813;DHT22;34221;45.296;9.516;2023-08-06T01:22:52;20.80;72.00
47813;DHT22;34221;45.296;9.516;2023-08-06T01:23:08;20.80;71.70
47813;DHT22;34221;45.296;9.516;2023-08-06T01:23:23;20.80;71.50
47813;DHT22;34221;45.296;9.516;2023-08-06T01:23:40;20.80;72.70
47813;DHT22;34221;45.296;9.516;2023-08-06T01:23:56;20.80;71.80
47813;DHT22;34221;45.296;9.516;2023-08-06T01:24:11;20.80;71.70
47813;DHT22;34221;45.296;9.516;2023-08-06T01:24:26;20.80;71.50
47813;DHT22;34221;45.296;9.516;2023-08-06T01:24:48;20.80;72.00
47813;DHT22;34221;45.296;9.516;2023-08-06T01:25:05;20.80;72.20
47813;DHT22;34221;45.296;9.516;2023-08-06T01:25:20;20.80;72.70
47813;DHT22;34221;45.296;9.516;2023-08-06T01:25:54;20.80;72.60
47813;DHT22;34221;45.296;9.516;2023-08-06T01:26:24;20.80;72.70
47813;DHT22;34221;45.296;9.516;2023-08-06T01:27:30;20.80;73.30
47813;DHT22;34221;45.296;9.516;2023-08-06T01:28:02;20.80;72.00
47813;DHT22;34221;45.296;9.516;2023-08-06T01:29:28;20.80;71.50
47813;DHT22;34221;45.296;9.516;2023-08-06T01:29:56;20.80;72.00
47813;DHT22;34221;45.296;9.516;2023-08-06T01:30:25;20.80;71.90
47813;DHT22;34221;45.296;9.516;2023-08-06T01:30:41;20.80;72.10
47813;DHT22;34221;45.296;9.516;2023-08-06T01:30:59;20.80;73.00
47813;DHT22;34221;45.296;9.516;2023-08-06T01:31:24;20.80;72.00
47813;DHT22;34221;45.296;9.516;2023-08-06T01:31:43;20.80;72.30
47813;DHT22;34221;45.296;9.516;2023-08-06T01:31:59;20.80;72.50
47813;DHT22;34221;45.296;9.516;2023-08-06T01:32:16;20.80;71.70
47813;DHT22;34221;45.296;9.516;2023-08-06T01:32:34;20.80;72.00
47813;DHT22;34221;45.296;9.516;2023-08-06T01:32:54;20.80;72.00
47813;DHT22;34221;45.296;9.516;2023-08-06T01:33:19;20.80;72.20
47813;DHT22;34221;45.296;9.516;2023-08-06T01:33:38;20.80;72.00
47813;DHT22;34221;45.296;9.516;2023-08-06T01:33:56;20.80;72.50
47813;DHT22;34221;45.296;9.516;2023-08-06T01:34:32;20.80;72.20
47813;DHT22;34221;45.296;9.516;2023-08-06T01:34:49;20.80;71.80
47813;DHT22;34221;45.296;9.516;2023-08-06T01:35:06;20.80;72.20
47813;DHT22;34221;45.296;9.516;2023-08-06T01:35:23;20.80;71.60
47813;DHT22;34221;45.296;9.516;2023-08-06T01:35:38;20.80;72.10
47813;DHT22;34221;45.296;9.516;2023-08-06T01:35:54;20.80;72.40
47813;DHT22;34221;45.296;9.516;2023-08-06T01:36:10;20.80;71.80
47813;DHT22;34221;45.296;9.516;2023-08-06T01:36:25;20.80;72.50
47813;DHT22;34221;45.296;9.516;2023-08-06T01:36:41;20.80;72.40
47813;DHT22;34221;45.296;9.516;2023-08-06T01:36:57;20.80;73.00
47813;DHT22;34221;45.296;9.516;2023-08-06T01:37:12;20.80;72.60
47813;DHT22;34221;45.296;9.516;2023-08-06T01:37:28;20.80;72.30
47813;DHT22;34221;45.296;9.516;2023-08-06T01:37:43;20.80;72.40
47813;DHT22;34221;45.296;9.516;2023-08-06T01:38:17;20.70;72.20
47813;DHT22;34221;45.296;9.516;2023-08-06T01:38:32;20.80;72.00
47813;DHT22;34221;45.296;9.516;2023-08-06T01:38:47;20.70;72.30
47813;DHT22;34221;45.296;9.516;2023-08-06T01:39:02;20.80;72.40
47813;DHT22;34221;45.296;9.516;2023-08-06T01:39:19;20.80;72.80
47813;DHT22;34221;45.296;9.516;2023-08-06T01:39:35;20.70;72.00
47813;DHT22;34221;45.296;9.516;2023-08-06T01:39:52;20.80;72.60
47813;DHT22;34221;45.296;9.516;2023-08-06T01:40:10;20.70;73.50
47813;DHT22;34221;45.296;9.516;2023-08-06T01:40:26;20.80;72.80
47813;DHT22;34221;45.296;9.516;2023-08-06T01:40:43;20.70;72.80
47813;DHT22;34221;45.296;9.516;2023-08-06T01:40:57;20.70;72.20
47813;DHT22;34221;45.296;9.516;2023-08-06T01:41:14;20.70;72.90
47813;DHT22;34221;45.296;9.516;2023-08-06T01:41:29;20.70;72.80
47813;DHT22;34221;45.296;9.516;2023-08-06T01:41:43;20.70;71.90
47813;DHT22;34221;45.296;9.516;2023-08-06T01:41:58;20.80;71.80
47813;DHT22;34221;45.296;9.516;2023-08-06T01:42:13;20.80;72.40
47813;DHT22;34221;45.296;9.516;2023-08-06T01:42:28;20.70;73.00
47813;DHT22;34221;45.296;9.516;2023-08-06T01:42:43;20.80;73.80
47813;DHT22;34221;45.296;9.516;2023-08-06T01:42:58;20.80;73.80
47813;DHT22;34221;45.296;9.516;2023-08-06T01:43:13;20.70;73.30
47813;DHT22;34221;45.296;9.516;2023-08-06T01:43:28;20.70;72.00
47813;DHT22;34221;45.296;9.516;2023-08-06T01:43:43;20.70;71.70
47813;DHT22;34221;45.296;9.516;2023-08-06T01:43:58;20.70;72.20
47813;DHT22;34221;45.296;9.516;2023-08-06T01:44:13;20.80;72.80
47813;DHT22;34221;45.296;9.516;2023-08-06T01:44:28;20.70;72.40
47813;DHT22;34221;45.296;9.516;2023-08-06T01:44:44;20.70;72.30
47813;DHT22;34221;45.296;9.516;2023-08-06T01:44:59;20.70;72.60
47813;DHT22;34221;45.296;9.516;2023-08-06T01:45:15;20.70;72.40
47813;DHT22;34221;45.296;9.516;2023-08-06T01:45:30;20.70;73.50
47813;DHT22;34221;45.296;9.516;2023-08-06T01:45:45;20.70;72.30
47813;DHT22;34221;45.296;9.516;2023-08-06T01:46:00;20.70;71.80
47813;DHT22;34221;45.296;9.516;2023-08-06T01:46:15;20.70;73.30
47813;DHT22;34221;45.296;9.516;2023-08-06T01:46:30;20.70;72.70
47813;DHT22;34221;45.296;9.516;2023-08-06T01:46:45;20.70;72.30
47813;DHT22;34221;45.296;9.516;2023-08-06T01:47:00;20.70;72.10
47813;DHT22;34221;45.296;9.516;2023-08-06T01:47:14;20.70;72.20
47813;DHT22;34221;45.296;9.516;2023-08-06T01:47:29;20.70;72.00
47813;DHT22;34221;45.296;9.516;2023-08-06T01:47:44;20.70;72.20
47813;DHT22;34221;45.296;9.516;2023-08-06T01:47:59;20.70;71.90
47813;DHT22;34221;45.296;9.516;2023-08-06T01:48:14;20.70;71.90
47813;DHT22;34221;45.296;9.516;2023-08-06T01:48:29;20.70;71.90
47813;DHT22;34221;45.296;9.516;2023-08-06T01:48:44;20.70;73.70
47813;DHT22;34221;45.296;9.516;2023-08-06T01:48:59;20.70;72.70
47813;DHT22;34221;45.296;9.516;2023-08-06T01:49:14;20.70;72.40
47813;DHT22;34221;45.296;9.516;2023-08-06T01:49:29;20.70;72.30
47813;DHT22;34221;45.296;9.516;2023-08-06T01:49:44;20.70;72.00